This is the latest recevied weather packets stored in our database for station/object F4LPU-13. If no packets are shown the sender has not sent any weather packets the latest 10 day(s).
| Time | Temp. | Humidity | Pressure | Rain* | Wind** | Luminosity | Snow |
|---|---|---|---|---|---|---|---|
| 1777968902 | 12.22° C | 9% | - | 0 mm | - | - | - |
| 1777965902 | 12.22° C | 9% | - | 0 mm | - | - | - |
| 1777962902 | 12.22° C | 9% | - | 0 mm | - | - | - |
| 1777959902 | 11.67° C | 9% | - | 0 mm | - | - | - |
| 1777956902 | 14.44° C | 8% | - | 0 mm | - | - | - |
| 1777924503 | 16.67° C | 6% | - | 0 mm | - | - | - |
| 1777900502 | 18.89° C | 5% | - | 0 mm | - | - | - |
| 1777897502 | 18.89° C | 5% | - | 0 mm | - | - | - |
| 1777888502 | 14.44° C | 8% | - | 0 mm | - | - | - |
| 1777885502 | 14.44° C | 8% | - | 0 mm | - | - | - |
| 1777882502 | 14.44° C | 8% | - | 0 mm | - | - | - |
| 1777879502 | 11.67° C | 8% | - | 0 mm | - | - | - |
| 1777876502 | 11.67° C | 8% | - | 0 mm | - | - | - |
| 1777873503 | 11.67° C | 9% | - | 0 mm | - | - | - |
| 1777870503 | 17.22° C | 4% | - | 0 mm | - | - | - |
| 1777838463 | 17.22° C | 4% | - | 0 mm | - | - | - |
| 1777835103 | 18.33° C | 4% | - | 0 mm | - | - | - |
| 1777829103 | 19.44° C | 4% | - | 0 mm | - | - | - |
| 1777811103 | 15° C | 7% | - | 0 mm | - | - | - |
| 1777796102 | 15.56° C | 5% | - | 0 mm | - | - | - |
| 1777793102 | 15° C | 4% | - | 0 mm | - | - | - |
| 1777790102 | 15° C | 4% | - | 0 mm | - | - | - |
| 1777787102 | 15° C | 4% | - | 0 mm | - | - | - |
| 1777784102 | 18.33° C | 2% | - | 0 mm | - | - | - |
| 1777752062 | 18.33° C | 2% | - | 0 mm | - | - | - |
* Rain latest hour (hover to see other rain measurements)
** Current wind speed in m/s (hover to see current wind gust speed)